Aérodrome :
LOGIN :

S'inscrire | Disclaimer

   EN    FR    IT 

 










Légende :    VFR   VFR Marginal   IFR   IFR Intensif   IFR Très Intensif
Visi : 
Plafond : 
>= 8 km
>= 3000ft
5 à 8 km
1000 à 3000 ft
1500m à 5 km
500 à 1000 ft
800 à 1500m
200 à 500 ft
< 800m
< 200 ft
Symboles :   Orages  Brouillard  Fortes neiges  Fortes précipitations  Vent > 20 kt
SIGMETs :   Divers  Orages  Givrage  Turbulence  Onde Orograph.  Cendres Volcan.






- Altitude de l'aérodrome : 446 ft
- Code IATA : VNE


LFRV - Vannes-Meucon

DERNIER METAR :
  • 150900Z AUTO 25006KT 200V300 9999 BKN008 BKN014 OVC100 19/17 Q1006

METARs EXPIRÉS :
  • 150830Z AUTO 24006KT 210V290 9000 BKN009 OVC013 18/17 Q1006
  • 150800Z AUTO 23006KT 200V260 8000 BKN007 OVC011 18/17 Q1006
  • 150730Z AUTO 24005KT 200V300 6000 OVC005 18/17 Q1006
  • 150700Z AUTO 26006KT 230V290 5000 BR OVC005 17/16 Q1006
  • 150630Z AUTO 26006KT 220V300 4300 BR OVC004 17/16 Q1006

TAF N/A



MET'MAP, la Météo Aéronautique d'un coup d'oeil ! - Copyright ORBIFLY Décembre 2007 - Disclaimer

ORBIFLY MET'MAP TEAM :

Programmation & Développement : Alexandra Zaïnal
Sur une idée originale de : Baudouin d'Aumeries
Soutien technique & logistique : Manuel Goepfert
Assistance : Marc-Olivier Méhu




SOURCES & CREDITS :

   NOAA